This is the latest recevied weather packets stored in our database for station/object JF7ELG-13. If no packets are shown the sender has not sent any weather packets the latest 10 day(s).
| Time | Temp. | Humidity | Pressure | Rain* | Wind** | Luminosity | Snow |
|---|---|---|---|---|---|---|---|
| 1778058210 | 18.89° C | 77% | 1013.5 hPa | 0 mm | - | - | - |
| 1778057309 | 18.89° C | 76% | 1013.5 hPa | 0 mm | - | - | - |
| 1778056413 | 19.44° C | 75% | 1013.7 hPa | 0 mm | - | - | - |
| 1778055512 | 20° C | 74% | 1013.6 hPa | 0 mm | - | - | - |
| 1778054611 | 20° C | 73% | 1013.4 hPa | 0 mm | - | - | - |
| 1778053708 | 20° C | 73% | 1013.4 hPa | 0 mm | - | - | - |
| 1778052832 | 20° C | 72% | 1013.7 hPa | 0 mm | - | - | - |
| 1778051906 | 20° C | 72% | 1013.6 hPa | 0 mm | - | - | - |
| 1778051010 | 20.56° C | 71% | 1013.4 hPa | 0 mm | - | - | - |
| 1778050136 | 20.56° C | 71% | 1013.5 hPa | 0 mm | - | - | - |
| 1778049197 | 21.11° C | 71% | 1013.4 hPa | 0 mm | - | - | - |
| 1778048326 | 21.67° C | 68% | 1013.4 hPa | 0 mm | - | - | - |
| 1778047401 | 21.67° C | 68% | 1013.4 hPa | 0 mm | - | - | - |
| 1778046496 | 22.22° C | 61% | 1013.4 hPa | 0 mm | - | - | - |
| 1778045618 | 21.67° C | 66% | 1013.9 hPa | 0 mm | - | - | - |
| 1778044735 | 21.11° C | 69% | 1013.8 hPa | 0 mm | - | - | - |
| 1778043814 | 21.67° C | 67% | 1013.9 hPa | 0 mm | - | - | - |
| 1778042928 | 21.67° C | 67% | 1013.9 hPa | 0 mm | - | - | - |
| 1778042009 | 21.11° C | 68% | 1014.2 hPa | 0 mm | - | - | - |
| 1778041124 | 21.67° C | 66% | 1014.4 hPa | 0 mm | - | - | - |
| 1778040220 | 21.67° C | 66% | 1014.5 hPa | 0 mm | - | - | - |
| 1778039333 | 21.67° C | 67% | 1014.5 hPa | 0 mm | - | - | - |
| 1778038434 | 22.22° C | 66% | 1014.8 hPa | 0 mm | - | - | - |
| 1778037503 | 21.67° C | 65% | 1015.1 hPa | 0 mm | - | - | - |
| 1778036605 | 21.67° C | 65% | 1015.2 hPa | 0 mm | - | - | - |
* Rain latest hour (hover to see other rain measurements)
** Current wind speed in m/s (hover to see current wind gust speed)